Time;durP1;ratioP1;P1;durP2;ratioP2;P2;SDS_P1;SDS_P2;PMS_P1;PMS_P2;Temp;Humidity;BMP_temperature;BMP_pressure;BME280_temperature;BME280_humidity;BME280_pressure;Samples;Min_cycle;Max_cycle;Signal;HPM_P1;HPM_P2
2021/10/17 00:00:16;;;;;;;13.88;7.65;;;;;;;7.22;100.00;101433.63;5071837;28;20113;-70
2021/10/17 00:02:44;;;;;;;18.25;8.55;;;;;;;7.04;100.00;101433.31;5075069;28;20040;-70
2021/10/17 00:05:13;;;;;;;13.60;8.30;;;;;;;6.74;100.00;101427.84;5071592;28;20035;-71
2021/10/17 00:07:44;;;;;;;14.70;7.82;;;;;;;6.54;100.00;101435.59;5075948;28;20048;-70
2021/10/17 00:10:15;;;;;;;18.50;8.18;;;;;;;6.39;100.00;101434.97;5077252;28;21151;-70
2021/10/17 00:12:43;;;;;;;15.73;7.90;;;;;;;6.29;100.00;101434.00;5077752;28;20396;-70
2021/10/17 00:15:13;;;;;;;20.17;8.73;;;;;;;6.22;100.00;101433.63;5071976;28;20048;-70
2021/10/17 00:17:42;;;;;;;17.45;8.80;;;;;;;6.09;100.00;101433.75;5075335;28;20040;-70
2021/10/17 00:20:12;;;;;;;18.33;7.88;;;;;;;6.07;100.00;101429.53;5075412;28;20465;-70
2021/10/17 00:22:40;;;;;;;14.50;7.78;;;;;;;6.00;100.00;101430.00;5077564;28;20044;-70
2021/10/17 00:25:11;;;;;;;15.77;7.63;;;;;;;6.02;100.00;101430.75;5076035;28;20337;-70
2021/10/17 00:27:39;;;;;;;22.83;8.65;;;;;;;6.01;100.00;101423.75;5075448;28;20048;-70
2021/10/17 00:30:08;;;;;;;17.00;8.10;;;;;;;5.99;100.00;101424.81;5077363;28;20626;-70
2021/10/17 00:32:37;;;;;;;20.70;7.53;;;;;;;5.90;100.00;101412.22;5075923;28;20743;-72
2021/10/17 00:35:05;;;;;;;13.63;8.00;;;;;;;5.77;100.00;101423.81;5071343;28;20048;-71
2021/10/17 00:37:33;;;;;;;20.75;8.35;;;;;;;5.70;100.00;101422.59;5074618;28;20112;-70
2021/10/17 00:40:02;;;;;;;17.52;8.45;;;;;;;5.72;100.00;101425.94;5076826;28;20040;-70
2021/10/17 00:42:31;;;;;;;18.40;8.27;;;;;;;5.54;100.00;101417.56;5079922;28;20459;-70
2021/10/17 00:45:03;;;;;;;18.88;8.10;;;;;;;5.38;100.00;101423.19;5077939;28;20436;-71
2021/10/17 00:47:31;;;;;;;16.05;7.80;;;;;;;5.30;100.00;101414.97;5076726;28;20359;-71
2021/10/17 00:49:59;;;;;;;18.90;7.93;;;;;;;5.28;100.00;101422.19;5078664;28;20043;-71
2021/10/17 00:52:27;;;;;;;20.10;8.50;;;;;;;5.35;100.00;101420.78;5077703;28;20134;-70
2021/10/17 00:54:55;;;;;;;20.35;9.45;;;;;;;5.33;100.00;101417.38;5077292;28;20314;-71
2021/10/17 00:57:23;;;;;;;18.45;8.63;;;;;;;5.31;100.00;101420.13;5078316;28;20443;-71
2021/10/17 00:59:52;;;;;;;17.42;9.32;;;;;;;5.27;100.00;101428.44;5077720;28;20089;-70
2021/10/17 01:02:20;;;;;;;18.95;8.60;;;;;;;5.71;100.00;101428.72;5079666;28;20057;-70
2021/10/17 01:04:48;;;;;;;19.83;9.20;;;;;;;5.54;100.00;101427.34;5076122;28;20055;-70
2021/10/17 01:07:16;;;;;;;20.40;8.57;;;;;;;5.28;100.00;101422.19;5082538;28;20436;-70
2021/10/17 01:09:44;;;;;;;18.60;8.55;;;;;;;5.29;100.00;101429.19;5078064;28;20052;-70
2021/10/17 01:12:13;;;;;;;18.58;8.18;;;;;;;5.34;100.00;101422.59;5079299;28;20090;-70
2021/10/17 01:14:41;;;;;;;21.33;9.52;;;;;;;5.35;100.00;101413.66;5078399;28;20105;-70
2021/10/17 01:17:10;;;;;;;18.25;8.25;;;;;;;5.35;100.00;101424.25;5076616;28;20032;-70
2021/10/17 01:19:38;;;;;;;24.23;9.18;;;;;;;5.37;100.00;101421.47;5078128;28;20090;-70
2021/10/17 01:22:07;;;;;;;22.10;8.90;;;;;;;5.39;100.00;101414.28;5079151;28;20047;-70
2021/10/17 01:24:35;;;;;;;25.15;9.68;;;;;;;5.39;100.00;101427.53;5077088;28;20378;-70
2021/10/17 01:27:03;;;;;;;20.65;9.52;;;;;;;5.46;100.00;101418.16;5078440;28;20037;-71
2021/10/17 01:29:31;;;;;;;21.73;10.13;;;;;;;5.59;100.00;101415.44;5075620;28;20098;-70
2021/10/17 01:32:00;;;;;;;23.25;9.45;;;;;;;5.64;100.00;101412.44;5080023;28;20485;-70
2021/10/17 01:34:28;;;;;;;16.88;9.35;;;;;;;5.56;100.00;101410.38;5078075;28;20448;-70
2021/10/17 01:36:56;;;;;;;25.63;8.18;;;;;;;5.49;100.00;101417.94;5074918;28;20040;-70
2021/10/17 01:39:26;;;;;;;18.88;8.27;;;;;;;5.46;100.00;101409.38;5080344;28;20040;-70
2021/10/17 01:41:53;;;;;;;17.17;8.30;;;;;;;5.68;100.00;101416.53;5078366;28;20501;-70
2021/10/17 01:44:25;;;;;;;17.25;8.65;;;;;;;5.72;100.00;101412.69;5076562;28;20040;-70
2021/10/17 01:46:53;;;;;;;20.52;9.38;;;;;;;5.63;100.00;101410.75;5078054;28;20114;-71
2021/10/17 01:49:21;;;;;;;23.42;10.57;;;;;;;5.52;100.00;101409.75;5077139;28;20424;-70
2021/10/17 01:51:50;;;;;;;20.67;9.63;;;;;;;5.47;100.00;101403.09;5078734;28;20058;-70
2021/10/17 01:54:18;;;;;;;20.23;9.43;;;;;;;5.40;100.00;101402.75;5077029;28;20406;-70
2021/10/17 01:56:47;;;;;;;18.55;9.20;;;;;;;5.46;100.00;101404.91;5077463;28;20040;-71
2021/10/17 01:59:15;;;;;;;23.23;9.50;;;;;;;5.50;100.00;101403.72;5078348;28;20336;-70
2021/10/17 02:01:44;;;;;;;24.02;10.10;;;;;;;5.49;100.00;101407.34;5077342;28;20427;-70
2021/10/17 02:04:12;;;;;;;23.35;10.93;;;;;;;5.52;100.00;101401.78;5073161;28;20047;-70
2021/10/17 02:06:40;;;;;;;24.67;11.07;;;;;;;5.58;100.00;101407.59;5078143;28;20044;-70
2021/10/17 02:09:08;;;;;;;22.77;9.68;;;;;;;5.76;100.00;101402.72;5078436;28;20051;-70
2021/10/17 02:11:36;;;;;;;16.88;10.55;;;;;;;5.80;100.00;101394.41;5075455;28;20052;-70
2021/10/17 02:14:06;;;;;;;24.40;10.43;;;;;;;5.77;100.00;101392.00;5075160;28;20386;-70
2021/10/17 02:16:34;;;;;;;20.20;9.32;;;;;;;5.77;100.00;101389.34;5074791;28;20064;-70
2021/10/17 02:19:02;;;;;;;24.92;10.45;;;;;;;5.91;100.00;101392.72;5076435;28;20123;-70
2021/10/17 02:21:30;;;;;;;22.15;10.18;;;;;;;5.97;100.00;101386.97;5079589;28;20047;-70
2021/10/17 02:23:57;;;;;;;19.65;9.98;;;;;;;6.05;100.00;101378.44;5077089;28;20052;-70
2021/10/17 02:26:25;;;;;;;19.90;9.45;;;;;;;6.15;100.00;101385.56;5077338;28;20428;-70
2021/10/17 02:28:53;;;;;;;27.10;9.73;;;;;;;6.18;100.00;101389.75;5074815;28;20036;-70
2021/10/17 02:31:23;;;;;;;24.00;10.70;;;;;;;6.29;100.00;101383.63;5076038;28;20046;-70
2021/10/17 02:33:51;;;;;;;21.05;10.10;;;;;;;6.40;100.00;101383.59;5076063;28;20040;-70
2021/10/17 02:36:19;;;;;;;15.27;9.13;;;;;;;6.44;100.00;101377.09;5074626;28;20356;-70
2021/10/17 02:38:47;;;;;;;22.63;10.60;;;;;;;6.49;100.00;101377.59;5077762;28;20407;-70
2021/10/17 02:41:15;;;;;;;25.95;10.50;;;;;;;6.58;100.00;101375.13;5076155;28;20067;-70
2021/10/17 02:43:43;;;;;;;21.40;10.35;;;;;;;6.62;100.00;101373.91;5075192;28;20479;-70
2021/10/17 02:46:12;;;;;;;19.60;9.60;;;;;;;6.72;100.00;101373.06;5080397;28;20054;-70
2021/10/17 02:48:42;;;;;;;19.08;9.73;;;;;;;6.70;100.00;101367.03;5076998;28;20047;-70
2021/10/17 02:51:12;;;;;;;21.67;9.75;;;;;;;6.73;100.00;101373.91;5076147;28;20119;-70
2021/10/17 02:53:40;;;;;;;18.60;9.25;;;;;;;6.78;100.00;101369.06;5076588;28;20118;-70
2021/10/17 02:56:08;;;;;;;27.33;9.60;;;;;;;6.79;100.00;101364.59;5075962;28;20048;-70
2021/10/17 02:58:36;;;;;;;18.35;9.70;;;;;;;6.80;100.00;101364.47;5073662;28;20038;-70
2021/10/17 03:01:04;;;;;;;17.92;8.88;;;;;;;6.81;100.00;101366.16;5075582;28;20054;-70
2021/10/17 03:03:32;;;;;;;17.95;8.90;;;;;;;6.77;100.00;101367.38;5071521;28;20045;-70
2021/10/17 03:06:03;;;;;;;21.48;9.57;;;;;;;6.84;100.00;101359.75;5074020;28;20045;-70
2021/10/17 03:08:31;;;;;;;16.05;8.88;;;;;;;6.83;100.00;101360.72;5077436;28;20042;-70
2021/10/17 03:10:59;;;;;;;22.33;10.10;;;;;;;6.87;100.00;101368.31;5068481;28;20557;-70
2021/10/17 03:13:27;;;;;;;19.90;9.30;;;;;;;6.89;100.00;101363.72;5075342;28;20059;-71
2021/10/17 03:15:56;;;;;;;17.60;8.57;;;;;;;6.86;100.00;101361.34;5075284;28;20407;-70
2021/10/17 03:18:25;;;;;;;21.05;9.90;;;;;;;6.95;100.00;101361.53;5072533;28;20044;-70
2021/10/17 03:20:53;;;;;;;20.55;9.73;;;;;;;6.95;100.00;101362.38;5073963;28;20310;-70
2021/10/17 03:23:22;;;;;;;18.65;9.25;;;;;;;6.94;100.00;101359.84;5075989;28;20577;-69
2021/10/17 03:25:50;;;;;;;16.58;9.20;;;;;;;6.96;100.00;101358.75;5071328;28;20329;-69
2021/10/17 03:28:18;;;;;;;16.52;8.68;;;;;;;6.94;100.00;101350.06;5073593;28;20032;-69
2021/10/17 03:30:46;;;;;;;17.90;8.85;;;;;;;6.88;100.00;101351.41;5076063;28;20044;-70
2021/10/17 03:33:15;;;;;;;19.42;8.02;;;;;;;6.88;100.00;101350.56;5072841;28;20178;-69
2021/10/17 03:35:43;;;;;;;19.70;8.60;;;;;;;6.96;100.00;101341.97;5073259;28;20047;-69
2021/10/17 03:38:11;;;;;;;19.52;6.80;;;;;;;6.96;100.00;101339.31;5071503;28;20367;-69
2021/10/17 03:40:40;;;;;;;13.32;7.47;;;;;;;6.90;100.00;101348.63;5075246;28;20064;-69
2021/10/17 03:43:08;;;;;;;20.73;9.05;;;;;;;6.83;100.00;101348.31;5074429;28;20056;-69
2021/10/17 03:45:36;;;;;;;18.33;7.50;;;;;;;6.76;100.00;101341.78;5072772;28;20052;-69
2021/10/17 03:48:04;;;;;;;16.23;7.53;;;;;;;6.79;100.00;101341.56;5070184;28;20040;-69
2021/10/17 03:50:32;;;;;;;13.75;7.45;;;;;;;6.83;100.00;101344.78;5074702;28;20090;-69
2021/10/17 03:53:00;;;;;;;17.52;6.88;;;;;;;6.70;100.00;101344.94;5073736;28;20580;-70
2021/10/17 03:55:28;;;;;;;15.68;7.55;;;;;;;6.70;100.00;101343.13;5071000;28;20060;-69
2021/10/17 03:57:57;;;;;;;17.08;8.27;;;;;;;6.50;100.00;101342.09;5072805;28;20045;-69
2021/10/17 04:00:26;;;;;;;16.02;8.07;;;;;;;6.50;100.00;101336.78;5071173;28;20461;-69
2021/10/17 04:02:54;;;;;;;19.10;8.45;;;;;;;6.48;100.00;101338.75;5074202;28;20044;-69
2021/10/17 04:05:22;;;;;;;15.32;7.00;;;;;;;6.48;100.00;101337.91;5070169;28;20336;-72
2021/10/17 04:07:50;;;;;;;15.00;6.90;;;;;;;6.51;100.00;101338.50;5073615;28;20090;-69
2021/10/17 04:10:18;;;;;;;17.05;7.95;;;;;;;6.46;100.00;101345.13;5073795;28;20044;-69
2021/10/17 04:12:46;;;;;;;17.90;8.63;;;;;;;6.41;100.00;101340.19;5073771;28;20044;-69
2021/10/17 04:15:15;;;;;;;20.52;9.15;;;;;;;6.45;100.00;101344.28;5077326;28;20059;-69
2021/10/17 04:17:43;;;;;;;12.75;7.00;;;;;;;6.37;100.00;101341.41;5076321;28;20044;-69
2021/10/17 04:20:12;;;;;;;19.70;8.63;;;;;;;6.37;100.00;101352.03;5062243;28;20044;-69
2021/10/17 04:22:41;;;;;;;20.48;7.97;;;;;;;6.30;100.00;101356.13;5076833;28;20044;-70
2021/10/17 04:25:09;;;;;;;15.50;8.50;;;;;;;6.33;100.00;101350.56;5075090;28;20090;-69
2021/10/17 04:27:37;;;;;;;16.10;7.82;;;;;;;6.36;100.00;101351.19;5076954;28;20048;-68
2021/10/17 04:30:06;;;;;;;17.73;7.28;;;;;;;6.24;100.00;101343.34;5075424;28;20097;-69
2021/10/17 04:32:35;;;;;;;19.60;8.38;;;;;;;6.15;100.00;101345.78;5071923;28;20048;-69
2021/10/17 04:35:03;;;;;;;16.05;8.57;;;;;;;6.14;100.00;101352.03;5073354;28;20382;-69
2021/10/17 04:37:31;;;;;;;17.65;8.00;;;;;;;6.04;100.00;101343.13;5076702;28;20048;-69
2021/10/17 04:39:59;;;;;;;19.05;9.00;;;;;;;6.00;100.00;101350.47;5079140;28;20082;-69
2021/10/17 04:42:27;;;;;;;13.35;8.18;;;;;;;5.94;100.00;101347.41;5077546;28;20047;-69
2021/10/17 04:44:55;;;;;;;17.40;8.52;;;;;;;5.85;100.00;101356.94;5075295;28;20044;-69
2021/10/17 04:47:23;;;;;;;15.48;8.07;;;;;;;5.77;100.00;101354.88;5076100;28;20045;-69
2021/10/17 04:49:52;;;;;;;16.42;8.32;;;;;;;5.72;100.00;101349.09;5074188;28;20044;-69
2021/10/17 04:52:20;;;;;;;23.35;8.20;;;;;;;5.73;100.00;101349.91;5077240;28;20081;-68
2021/10/17 04:54:48;;;;;;;17.67;8.20;;;;;;;5.66;100.00;101352.22;5075640;28;20052;-69
2021/10/17 04:57:16;;;;;;;20.17;8.57;;;;;;;5.55;100.00;101354.84;5078949;28;20040;-69
2021/10/17 04:59:44;;;;;;;25.15;9.88;;;;;;;5.49;100.00;101357.00;5082293;28;20166;-69
2021/10/17 05:02:12;;;;;;;19.25;9.63;;;;;;;5.45;100.00;101350.22;5080017;28;20047;-69
2021/10/17 05:04:40;;;;;;;17.02;8.63;;;;;;;5.46;100.00;101351.94;5077545;28;20048;-69
2021/10/17 05:07:09;;;;;;;18.83;9.23;;;;;;;5.52;100.00;101351.44;5079660;28;20048;-70
2021/10/17 05:09:37;;;;;;;18.58;9.07;;;;;;;5.51;100.00;101344.50;5079315;28;20044;-69
2021/10/17 05:12:06;;;;;;;15.68;8.05;;;;;;;5.47;100.00;101348.34;5079441;28;20052;-69
2021/10/17 05:14:34;;;;;;;16.38;8.90;;;;;;;5.40;100.00;101348.91;5074198;28;20332;-69
2021/10/17 05:17:02;;;;;;;15.85;8.27;;;;;;;5.25;100.00;101353.56;5077015;28;20071;-69
2021/10/17 05:19:30;;;;;;;20.67;8.75;;;;;;;5.27;100.00;101354.28;5074281;28;20553;-69
2021/10/17 05:21:58;;;;;;;20.10;8.60;;;;;;;5.13;100.00;101353.53;5077286;28;20105;-70
2021/10/17 05:24:27;;;;;;;21.33;9.35;;;;;;;5.11;100.00;101350.13;5078248;28;20333;-69
2021/10/17 05:26:55;;;;;;;19.15;8.98;;;;;;;5.10;100.00;101367.00;5076924;28;20378;-69
2021/10/17 05:29:24;;;;;;;16.85;8.98;;;;;;;5.07;100.00;101356.59;5076036;28;20391;-69
2021/10/17 05:31:52;;;;;;;19.85;8.88;;;;;;;5.02;100.00;101363.19;5076093;28;20040;-69
2021/10/17 05:34:19;;;;;;;18.65;9.90;;;;;;;4.91;100.00;101361.38;5071370;28;20054;-69
2021/10/17 05:36:47;;;;;;;16.77;9.23;;;;;;;4.79;100.00;101363.97;5076788;28;20394;-69
2021/10/17 05:39:15;;;;;;;19.35;9.70;;;;;;;4.71;100.00;101368.94;5073404;28;20086;-69
2021/10/17 05:41:44;;;;;;;24.17;9.93;;;;;;;4.58;100.00;101373.44;5073990;28;20036;-69
2021/10/17 05:44:12;;;;;;;21.42;9.82;;;;;;;4.79;100.00;101369.25;5074536;28;20043;-69
2021/10/17 05:46:40;;;;;;;21.42;10.00;;;;;;;4.73;100.00;101382.06;5072480;28;20102;-69
2021/10/17 05:49:08;;;;;;;24.48;10.05;;;;;;;4.68;100.00;101379.75;5074052;28;20040;-69
2021/10/17 05:51:38;;;;;;;24.00;10.07;;;;;;;4.72;100.00;101386.53;5074572;28;21508;-70
2021/10/17 05:54:06;;;;;;;23.98;9.77;;;;;;;4.72;100.00;101383.03;5071528;28;21560;-69
2021/10/17 05:56:34;;;;;;;27.35;10.93;;;;;;;4.70;100.00;101390.25;5072679;28;20097;-70
2021/10/17 05:59:08;;;;;;;20.23;10.40;;;;;;;4.64;100.00;101386.22;5074843;28;20476;-69
2021/10/17 06:01:36;;;;;;;20.60;10.40;;;;;;;4.52;100.00;101393.22;5074460;28;20718;-69
2021/10/17 06:04:05;;;;;;;24.10;11.38;;;;;;;4.37;100.00;101395.19;5071712;28;20044;-69
2021/10/17 06:06:35;;;;;;;21.17;10.27;;;;;;;4.27;100.00;101394.16;5075687;28;20044;-70
2021/10/17 06:09:03;;;;;;;21.98;10.82;;;;;;;4.31;100.00;101395.63;5077928;28;20052;-69
2021/10/17 06:11:32;;;;;;;24.38;10.02;;;;;;;4.26;100.00;101393.28;5077107;28;20056;-69
2021/10/17 06:14:00;;;;;;;23.15;10.35;;;;;;;4.36;100.00;101404.06;5074749;28;20044;-69
2021/10/17 06:16:29;;;;;;;19.65;11.07;;;;;;;4.31;100.00;101398.28;5076817;28;20051;-69
2021/10/17 06:18:57;;;;;;;26.13;12.18;;;;;;;4.37;100.00;101403.13;5073784;28;20352;-69
2021/10/17 06:21:25;;;;;;;25.67;11.52;;;;;;;4.33;100.00;101396.34;5075747;28;20052;-69
2021/10/17 06:23:53;;;;;;;20.25;9.40;;;;;;;4.40;100.00;101400.25;5074279;28;20036;-69
2021/10/17 06:26:21;;;;;;;25.30;11.70;;;;;;;4.57;100.00;101398.22;5077941;28;20451;-69
2021/10/17 06:28:48;;;;;;;20.95;10.68;;;;;;;4.68;100.00;101400.94;5075159;28;20048;-68
2021/10/17 06:31:17;;;;;;;25.05;11.27;;;;;;;4.63;100.00;101400.41;5076990;28;20040;-69
2021/10/17 06:33:46;;;;;;;23.40;11.65;;;;;;;4.63;100.00;101408.34;5074266;28;20128;-70
2021/10/17 06:36:14;;;;;;;21.08;10.15;;;;;;;4.75;100.00;101396.88;5074759;28;20076;-69
2021/10/17 06:38:42;;;;;;;22.83;10.15;;;;;;;4.82;100.00;101405.22;5078126;28;20048;-69
2021/10/17 06:41:10;;;;;;;25.05;10.90;;;;;;;4.91;100.00;101409.00;5076878;28;20130;-69
2021/10/17 06:43:37;;;;;;;25.73;11.23;;;;;;;4.81;100.00;101414.97;5073582;28;20307;-69
2021/10/17 06:46:05;;;;;;;23.20;10.68;;;;;;;4.82;100.00;101407.88;5074909;28;20052;-69
2021/10/17 06:48:34;;;;;;;25.83;11.80;;;;;;;5.08;100.00;101415.72;5073770;28;20390;-69
2021/10/17 06:51:04;;;;;;;22.17;10.50;;;;;;;5.27;100.00;101415.19;5076137;28;20616;-69
2021/10/17 06:53:32;;;;;;;17.63;9.73;;;;;;;5.38;100.00;101409.94;5077725;28;20059;-69
2021/10/17 06:56:00;;;;;;;20.50;11.25;;;;;;;5.51;100.00;101413.38;5072658;28;20342;-69
2021/10/17 06:58:28;;;;;;;23.02;9.63;;;;;;;5.67;100.00;101402.44;5077049;28;20048;-69
2021/10/17 07:00:55;;;;;;;22.10;10.65;;;;;;;5.85;100.00;101412.59;5073854;28;20118;-69
2021/10/17 07:03:24;;;;;;;23.02;10.80;;;;;;;6.07;100.00;101403.88;5073766;28;20439;-70
2021/10/17 07:05:52;;;;;;;18.90;10.93;;;;;;;6.17;100.00;101410.13;5073748;28;20045;-70
2021/10/17 07:08:21;;;;;;;17.65;9.55;;;;;;;6.32;100.00;101392.19;5076570;28;20437;-69
2021/10/17 07:10:54;;;;;;;17.30;9.50;;;;;;;6.52;100.00;101403.88;5079125;28;20047;-70
2021/10/17 07:13:21;;;;;;;20.90;9.15;;;;;;;6.69;100.00;101402.50;5078839;28;20621;-70
2021/10/17 07:15:50;;;;;;;16.23;9.68;;;;;;;6.88;100.00;101401.03;5070195;28;20036;-70
2021/10/17 07:18:18;;;;;;;18.70;9.57;;;;;;;6.97;100.00;101399.44;5074969;28;20044;-71
2021/10/17 07:20:49;;;;;;;20.58;8.70;;;;;;;7.06;100.00;101401.34;5076355;28;20378;-70
2021/10/17 07:23:17;;;;;;;14.52;8.73;;;;;;;7.10;100.00;101401.91;5076989;28;20374;-70
2021/10/17 07:25:47;;;;;;;13.02;7.97;;;;;;;7.33;100.00;101402.66;5074047;28;20056;-70
2021/10/17 07:28:15;;;;;;;14.80;8.55;;;;;;;7.33;100.00;101397.34;5071137;28;20044;-70
2021/10/17 07:30:43;;;;;;;13.45;8.02;;;;;;;7.44;100.00;101399.97;5077862;28;20044;-70
2021/10/17 07:33:11;;;;;;;19.30;8.00;;;;;;;7.67;100.00;101397.19;5076352;28;20055;-70
2021/10/17 07:35:39;;;;;;;14.23;7.78;;;;;;;7.80;100.00;101403.16;5074212;28;20097;-70
2021/10/17 07:38:07;;;;;;;14.23;8.20;;;;;;;7.93;100.00;101403.78;5076348;28;20044;-72
2021/10/17 07:40:35;;;;;;;15.65;7.90;;;;;;;7.88;100.00;101399.81;5075955;28;20051;-70
2021/10/17 07:43:04;;;;;;;20.23;7.40;;;;;;;8.14;100.00;101397.59;5075033;28;20044;-70
2021/10/17 07:45:33;;;;;;;14.07;8.73;;;;;;;8.28;100.00;101399.06;5074418;28;20063;-70
2021/10/17 07:48:01;;;;;;;18.55;8.15;;;;;;;8.50;100.00;101403.34;5073076;28;20474;-70
2021/10/17 07:50:29;;;;;;;14.07;9.40;;;;;;;8.68;100.00;101408.06;5074903;28;20048;-69
2021/10/17 07:52:57;;;;;;;14.65;7.82;;;;;;;8.70;100.00;101406.09;5077687;28;20066;-70
2021/10/17 07:55:25;;;;;;;15.95;7.72;;;;;;;8.85;100.00;101402.06;5076383;28;20056;-71
2021/10/17 07:57:54;;;;;;;17.45;8.43;;;;;;;9.10;100.00;101394.50;5079657;28;20052;-70
2021/10/17 08:00:25;;;;;;;14.27;7.45;;;;;;;9.18;100.00;101396.47;5079515;28;20173;-71
2021/10/17 08:02:54;;;;;;;15.05;6.80;;;;;;;9.22;100.00;101403.22;5078313;28;20044;-71
2021/10/17 08:05:22;;;;;;;16.35;6.90;;;;;;;9.32;100.00;101401.38;5076303;28;20408;-71
2021/10/17 08:07:50;;;;;;;12.13;6.50;;;;;;;9.46;100.00;101397.47;5078708;28;20051;-71
2021/10/17 08:10:18;;;;;;;12.63;6.95;;;;;;;9.57;100.00;101397.31;5079904;28;20048;-70
2021/10/17 08:12:46;;;;;;;14.70;6.28;;;;;;;9.76;100.00;101401.75;5079983;28;20036;-71
2021/10/17 08:15:14;;;;;;;13.40;6.80;;;;;;;9.60;100.00;101397.03;5077788;28;20051;-70
2021/10/17 08:17:43;;;;;;;13.23;6.82;;;;;;;9.64;100.00;101401.09;5077165;28;20044;-71
2021/10/17 08:20:11;;;;;;;15.48;6.90;;;;;;;10.02;100.00;101401.13;5073999;28;20268;-71
2021/10/17 08:22:39;;;;;;;11.60;6.95;;;;;;;10.43;100.00;101406.22;5077795;28;20474;-70
2021/10/17 08:25:08;;;;;;;11.75;7.13;;;;;;;10.62;100.00;101408.78;5057027;28;20040;-70
2021/10/17 08:27:40;;;;;;;13.05;7.05;;;;;;;10.99;100.00;101402.50;5077672;28;20348;-71
2021/10/17 08:30:09;;;;;;;11.02;6.03;;;;;;;10.96;100.00;101410.81;5076828;28;20039;-70
2021/10/17 08:32:37;;;;;;;11.20;6.20;;;;;;;11.32;100.00;101404.66;5071188;28;21739;-71
2021/10/17 08:35:07;;;;;;;10.38;5.75;;;;;;;11.60;100.00;101401.88;5075012;28;20051;-70
2021/10/17 08:37:35;;;;;;;9.20;5.93;;;;;;;11.67;100.00;101400.25;5077283;28;21377;-71
2021/10/17 08:40:04;;;;;;;11.63;6.15;;;;;;;11.78;100.00;101399.16;5078148;28;20083;-70
2021/10/17 08:42:32;;;;;;;11.88;6.43;;;;;;;11.67;100.00;101408.28;5075768;28;20040;-71
2021/10/17 08:45:04;;;;;;;16.45;7.25;;;;;;;11.88;100.00;101399.91;5072063;28;20047;-70
2021/10/17 08:47:34;;;;;;;14.25;7.20;;;;;;;11.62;100.00;101406.06;5074535;28;20436;-70
2021/10/17 08:50:05;;;;;;;13.88;8.02;;;;;;;11.96;100.00;101410.66;5077637;28;20464;-71
2021/10/17 08:52:35;;;;;;;12.20;6.75;;;;;;;12.07;100.00;101406.06;5075426;28;20075;-70
2021/10/17 08:55:06;;;;;;;12.20;6.22;;;;;;;12.24;100.00;101410.50;5075887;28;20048;-71
2021/10/17 08:57:34;;;;;;;11.25;6.20;;;;;;;12.26;100.00;101403.13;5070051;28;20296;-70
2021/10/17 09:00:02;;;;;;;10.07;5.32;;;;;;;12.66;100.00;101398.09;5071248;28;20471;-70
2021/10/17 09:02:29;;;;;;;9.93;6.10;;;;;;;12.87;100.00;101401.19;5071020;28;20048;-71
2021/10/17 09:04:59;;;;;;;12.43;6.68;;;;;;;12.32;100.00;101405.19;5071367;28;20044;-71
2021/10/17 09:07:28;;;;;;;10.73;6.90;;;;;;;12.70;100.00;101405.69;5075099;28;20118;-71
2021/10/17 09:10:09;;;;;;;10.63;6.30;;;;;;;12.79;100.00;101408.38;5077605;28;20268;-70
2021/10/17 09:12:39;;;;;;;10.50;6.22;;;;;;;13.33;100.00;101403.44;5077724;28;20059;-70
2021/10/17 09:15:34;;;;;;;11.68;6.68;;;;;;;13.49;100.00;101407.16;5074487;28;20055;-71
2021/10/17 09:18:13;;;;;;;14.13;6.65;;;;;;;13.46;100.00;101405.66;5042296;28;20083;-70
2021/10/17 09:21:00;;;;;;;12.05;5.95;;;;;;;13.53;100.00;101400.47;5077307;28;20086;-70
2021/10/17 09:23:36;;;;;;;6.82;4.80;;;;;;;13.66;100.00;101414.19;5076920;28;20079;-70
2021/10/17 09:26:11;;;;;;;15.80;6.38;;;;;;;13.46;100.00;101410.19;5074682;28;20340;-70
2021/10/17 09:28:41;;;;;;;10.30;6.25;;;;;;;13.31;100.00;101416.19;5078655;28;20056;-70
2021/10/17 09:31:10;;;;;;;10.40;6.55;;;;;;;13.36;100.00;101408.50;5075452;28;20055;-70
2021/10/17 09:33:43;;;;;;;10.77;6.30;;;;;;;13.67;100.00;101413.19;5075568;28;20276;-70
2021/10/17 09:36:26;;;;;;;12.90;6.68;;;;;;;13.86;100.00;101405.78;5074671;28;20994;-70
2021/10/17 09:38:57;;;;;;;9.82;6.10;;;;;;;13.68;100.00;101405.97;5076049;28;20458;-69
2021/10/17 09:41:32;;;;;;;12.15;6.38;;;;;;;14.00;100.00;101401.56;5074291;28;20052;-69
2021/10/17 09:44:03;;;;;;;10.70;6.47;;;;;;;14.12;100.00;101406.41;5074403;28;20044;-69
2021/10/17 09:46:31;;;;;;;12.65;6.45;;;;;;;14.24;100.00;101414.09;5074887;28;20312;-70
2021/10/17 09:48:59;;;;;;;9.50;6.50;;;;;;;14.56;100.00;101406.91;5075251;28;20332;-70
2021/10/17 09:51:28;;;;;;;10.52;6.45;;;;;;;14.84;100.00;101398.38;5079545;28;20045;-70
2021/10/17 09:53:57;;;;;;;11.70;5.88;;;;;;;14.79;100.00;101398.94;5076279;28;20043;-70
2021/10/17 09:56:30;;;;;;;11.52;7.13;;;;;;;13.50;100.00;101400.81;5078254;28;20062;-70
2021/10/17 09:58:59;;;;;;;13.10;6.57;;;;;;;15.11;100.00;101405.09;5075446;28;20129;-70
2021/10/17 10:01:28;;;;;;;9.68;5.63;;;;;;;15.00;100.00;101406.38;5070840;28;20043;-70
2021/10/17 10:03:57;;;;;;;9.18;5.68;;;;;;;15.60;100.00;101404.72;5072982;28;20058;-70
2021/10/17 10:06:26;;;;;;;9.77;5.70;;;;;;;15.62;100.00;101401.84;5074293;28;20391;-69
2021/10/17 10:08:57;;;;;;;9.43;6.22;;;;;;;15.70;100.00;101409.84;5070155;28;20550;-71
2021/10/17 10:11:28;;;;;;;13.30;6.38;;;;;;;15.65;100.00;101412.28;5073635;28;20048;-71
2021/10/17 10:13:57;;;;;;;10.55;5.55;;;;;;;15.86;100.00;101402.66;5073828;28;20040;-70
2021/10/17 10:16:27;;;;;;;11.23;5.65;;;;;;;15.89;100.00;101407.69;5072846;28;20284;-69
2021/10/17 10:19:00;;;;;;;13.93;5.95;;;;;;;15.86;100.00;101408.06;5073051;28;20079;-70
2021/10/17 10:21:28;;;;;;;10.02;5.72;;;;;;;16.05;100.00;101412.91;5066622;28;20159;-70
2021/10/17 10:23:58;;;;;;;9.45;5.72;;;;;;;15.42;100.00;101405.06;5071700;28;20044;-70
2021/10/17 10:26:32;;;;;;;11.77;6.57;;;;;;;15.47;100.00;101405.34;5069070;28;20741;-69
2021/10/17 10:29:01;;;;;;;15.18;6.40;;;;;;;14.31;100.00;101401.63;5072660;28;20471;-70
2021/10/17 10:31:43;;;;;;;9.45;6.05;;;;;;;14.33;100.00;101402.31;5073499;28;20044;-70
2021/10/17 10:34:12;;;;;;;13.48;5.68;;;;;;;14.74;100.00;101401.31;5077774;28;20112;-70
2021/10/17 10:36:41;;;;;;;8.68;5.43;;;;;;;14.93;100.00;101398.16;5074554;28;20443;-70
2021/10/17 10:39:11;;;;;;;12.02;4.93;;;;;;;15.23;100.00;101400.16;5078606;28;20428;-70
2021/10/17 10:41:49;;;;;;;9.00;4.95;;;;;;;15.31;100.00;101400.09;5074048;28;20039;-70
2021/10/17 10:44:18;;;;;;;8.10;5.00;;;;;;;15.33;100.00;101392.69;5071035;28;20309;-70
2021/10/17 10:46:48;;;;;;;7.60;4.82;;;;;;;15.80;100.00;101394.28;5075544;28;20127;-70
2021/10/17 10:49:40;;;;;;;11.35;5.78;;;;;;;15.04;100.00;101394.25;5077065;28;20198;-70
2021/10/17 10:52:09;;;;;;;7.68;5.22;;;;;;;15.52;100.00;101387.81;5075684;28;20529;-68
2021/10/17 10:54:37;;;;;;;12.02;4.60;;;;;;;15.12;100.00;101388.78;5071870;28;20599;-68
2021/10/17 10:57:19;;;;;;;8.73;4.90;;;;;;;16.35;100.00;101388.66;5070288;28;20463;-70
2021/10/17 11:00:02;;;;;;;9.05;5.25;;;;;;;15.95;100.00;101385.41;5074847;28;20040;-70
2021/10/17 11:02:30;;;;;;;8.77;4.95;;;;;;;15.51;100.00;101384.28;5070036;28;20340;-69
2021/10/17 11:05:02;;;;;;;9.90;5.72;;;;;;;16.37;100.00;101383.88;5069547;28;20048;-70
2021/10/17 11:07:44;;;;;;;10.80;4.38;;;;;;;16.27;100.00;101384.19;5077901;28;20329;-70
2021/10/17 11:10:46;;;;;;;9.55;5.10;;;;;;;16.45;100.00;101385.66;5074593;28;20328;-70
2021/10/17 11:13:38;;;;;;;11.73;5.07;;;;;;;16.42;100.00;101378.78;5070747;28;20155;-70
2021/10/17 11:16:07;;;;;;;9.63;5.22;;;;;;;16.53;100.00;101389.09;5075170;28;20045;-71
2021/10/17 11:18:40;;;;;;;11.30;5.07;;;;;;;16.29;100.00;101387.53;5071791;28;20051;-70
2021/10/17 11:21:09;;;;;;;8.88;3.83;;;;;;;16.30;100.00;101386.53;5075042;28;20048;-70
2021/10/17 11:23:39;;;;;;;7.50;3.70;;;;;;;16.53;100.00;101382.88;5075034;28;20055;-70